Millinocket, Maine
Current Conditions -  °F | °C
As of 2:53 AM on Saturday 29 Nov 2014 (Local Time) from KMLT Reporting Station
Clear Clear  
Wind Chill: 18°   Ceiling: Unl
Heat Index: 18°   Visibility: 10mi
Dew Point: 11°   Wind: 3mph
Humidity: 74%   Direction: NA
Pressure: 30.15"   Gusts: NA
Location:  45.66°N, 68.71°W
Report Text: KMLT 290753Z AUTO VRB03KT 10SM CLR M08/M12 A3015 RMK AO2 SLP224 T10781117
Loading
Personal Weather Stations






























Interactive Weather Map New forecast layout! Learn more

10-Day Weather Forecast

Advertisements
Track Severe Weather on mobile